Time;durP1;ratioP1;P1;durP2;ratioP2;P2;SDS_P1;SDS_P2;PMS_P1;PMS_P2;Temp;Humidity;BMP_temperature;BMP_pressure;BME280_temperature;BME280_humidity;BME280_pressure;Samples;Min_cycle;Max_cycle;Signal;HPM_P1;HPM_P2
2023/01/27 00:00:51;;;;;;;17.70;11.87;;;-0.20;99.90;;;;;;4973117;28;20177;-76
2023/01/27 00:03:17;;;;;;;21.33;13.53;;;-0.30;99.90;;;;;;4973375;28;20173;-76
2023/01/27 00:05:43;;;;;;;23.20;14.97;;;-0.20;99.90;;;;;;4961111;28;20209;-76
2023/01/27 00:08:08;;;;;;;19.57;12.73;;;-0.20;99.90;;;;;;4969954;28;20204;-76
2023/01/27 00:10:34;;;;;;;18.03;12.80;;;-0.20;99.90;;;;;;4956884;28;20211;-76
2023/01/27 00:15:43;;;;;;;17.70;12.67;;;-0.30;99.90;;;;;;4967317;28;20192;-76
2023/01/27 00:18:09;;;;;;;21.20;12.70;;;-0.20;99.90;;;;;;4959235;28;20190;-76
2023/01/27 00:26:13;;;;;;;17.90;12.80;;;0.00;99.90;;;;;;4947778;28;20209;-76
2023/01/27 00:28:40;;;;;;;20.63;12.33;;;-0.10;99.90;;;;;;4960225;28;20289;-76
2023/01/27 00:33:52;;;;;;;17.70;11.53;;;0.10;99.90;;;;;;4970563;28;20276;-76
2023/01/27 00:36:18;;;;;;;17.70;11.77;;;0.10;99.90;;;;;;4962416;28;20252;-76
2023/01/27 00:38:44;;;;;;;18.20;12.67;;;0.20;99.90;;;;;;4972948;28;20185;-76
2023/01/27 00:41:18;;;;;;;16.70;11.90;;;0.30;99.90;;;;;;4962378;28;20185;-76
2023/01/27 00:43:52;;;;;;;17.87;12.27;;;0.30;99.90;;;;;;4966421;28;20659;-76
2023/01/27 00:46:20;;;;;;;17.20;12.60;;;0.20;99.90;;;;;;4972258;28;20201;-76
2023/01/27 00:48:46;;;;;;;17.63;12.50;;;0.20;99.90;;;;;;4959815;28;20206;-76
2023/01/27 00:51:12;;;;;;;18.43;12.63;;;0.20;99.90;;;;;;4970963;28;20185;-76
2023/01/27 00:53:38;;;;;;;18.67;12.77;;;0.40;99.90;;;;;;4957844;28;20170;-76
2023/01/27 00:56:05;;;;;;;17.77;13.20;;;0.40;99.90;;;;;;4968154;28;20267;-76
2023/01/27 00:58:30;;;;;;;18.87;12.87;;;0.50;99.90;;;;;;4960643;28;20653;-75
2023/01/27 01:00:59;;;;;;;21.80;13.80;;;0.40;99.90;;;;;;4972496;28;20304;-76
2023/01/27 01:03:25;;;;;;;20.73;13.67;;;0.30;99.90;;;;;;4962688;28;20220;-76
2023/01/27 01:05:51;;;;;;;18.47;13.07;;;0.30;99.90;;;;;;4966272;28;20186;-76
2023/01/27 01:08:17;;;;;;;19.90;12.97;;;0.30;99.90;;;;;;4970403;28;20184;-76
2023/01/27 01:10:43;;;;;;;20.10;13.10;;;0.40;99.90;;;;;;4960085;28;20312;-76
2023/01/27 01:13:12;;;;;;;20.80;13.50;;;0.40;99.90;;;;;;4973584;28;20177;-76
2023/01/27 01:15:39;;;;;;;19.27;13.80;;;0.30;99.90;;;;;;4962899;28;20195;-76
2023/01/27 01:18:06;;;;;;;21.40;14.00;;;0.30;99.90;;;;;;4965724;28;20193;-76
2023/01/27 01:20:38;;;;;;;17.57;12.97;;;0.30;99.90;;;;;;4969938;28;20208;-76
2023/01/27 01:23:05;;;;;;;19.73;12.90;;;0.30;99.90;;;;;;4957553;28;20192;-76
2023/01/27 01:25:31;;;;;;;21.83;14.23;;;0.20;99.90;;;;;;4962655;28;20185;-76
2023/01/27 01:27:56;;;;;;;20.57;12.83;;;0.20;99.90;;;;;;4967086;28;20338;-76
2023/01/27 01:30:25;;;;;;;19.63;13.70;;;0.20;99.90;;;;;;4967887;28;20215;-76
2023/01/27 01:32:51;;;;;;;22.43;14.20;;;0.30;99.90;;;;;;4960234;28;20245;-76
2023/01/27 01:35:17;;;;;;;19.33;13.53;;;0.30;99.90;;;;;;4971402;28;20177;-76
2023/01/27 01:37:43;;;;;;;21.80;13.83;;;0.30;99.90;;;;;;4961493;28;20201;-76
2023/01/27 01:40:11;;;;;;;19.57;13.47;;;0.30;99.90;;;;;;4975336;28;20184;-76
2023/01/27 01:42:49;;;;;;;20.73;13.70;;;0.30;99.90;;;;;;4976311;28;20173;-76
2023/01/27 01:45:32;;;;;;;26.03;14.10;;;0.30;99.90;;;;;;4959171;28;20181;-76
2023/01/27 01:48:04;;;;;;;20.50;13.20;;;0.40;99.90;;;;;;4974585;28;20231;-76
2023/01/27 01:50:31;;;;;;;21.83;14.57;;;0.20;99.90;;;;;;4975247;28;20694;-76
2023/01/27 01:52:58;;;;;;;20.50;14.20;;;-0.10;99.90;;;;;;4975201;28;20206;-76
2023/01/27 01:55:24;;;;;;;20.80;14.30;;;0.00;99.90;;;;;;4975203;28;20215;-75
2023/01/27 01:57:50;;;;;;;21.03;13.47;;;0.00;99.90;;;;;;4975072;28;20232;-76
2023/01/27 02:00:16;;;;;;;21.07;13.90;;;0.00;99.90;;;;;;4974768;28;20526;-76
2023/01/27 02:02:43;;;;;;;22.77;14.27;;;-0.10;99.90;;;;;;4974729;28;20247;-76
2023/01/27 02:05:23;;;;;;;19.97;13.30;;;0.00;99.90;;;;;;4974592;28;20216;-76
2023/01/27 02:08:03;;;;;;;20.13;14.13;;;0.00;99.90;;;;;;4975336;28;20207;-76
2023/01/27 02:10:30;;;;;;;21.73;14.20;;;0.10;99.90;;;;;;4975376;28;20267;-76
2023/01/27 02:13:22;;;;;;;20.73;14.23;;;0.10;99.90;;;;;;4976036;28;20184;-76
2023/01/27 02:15:51;;;;;;;20.07;13.30;;;0.00;99.90;;;;;;4974259;28;20204;-76
2023/01/27 02:18:16;;;;;;;20.20;13.90;;;0.00;99.90;;;;;;4974714;28;20181;-76
2023/01/27 02:20:53;;;;;;;20.17;13.97;;;0.10;99.90;;;;;;4974375;28;20197;-76
2023/01/27 02:23:42;;;;;;;20.73;13.90;;;0.10;99.90;;;;;;4975549;28;20220;-76
2023/01/27 02:26:22;;;;;;;18.87;13.37;;;0.00;99.90;;;;;;4974242;28;20197;-76
2023/01/27 02:28:57;;;;;;;21.47;13.33;;;-0.10;99.90;;;;;;4974431;28;20200;-76
2023/01/27 02:31:23;;;;;;;22.03;14.47;;;0.00;99.90;;;;;;4975418;28;20517;-76
2023/01/27 02:33:50;;;;;;;20.47;14.07;;;0.00;99.90;;;;;;4974129;28;20181;-76
2023/01/27 02:36:17;;;;;;;18.03;12.73;;;0.00;99.90;;;;;;4975544;28;20201;-76
2023/01/27 02:38:49;;;;;;;19.50;13.30;;;0.00;99.90;;;;;;4974030;28;20189;-76
2023/01/27 02:41:19;;;;;;;18.07;12.87;;;0.00;99.90;;;;;;4974153;28;20235;-76
2023/01/27 02:43:45;;;;;;;19.13;13.43;;;0.00;99.90;;;;;;4974020;28;20191;-76
2023/01/27 02:46:11;;;;;;;19.07;12.87;;;0.00;99.90;;;;;;4973488;28;20201;-76
2023/01/27 02:48:36;;;;;;;20.03;13.30;;;0.00;99.90;;;;;;4973576;28;20205;-76
2023/01/27 02:51:02;;;;;;;18.60;13.40;;;-0.10;99.90;;;;;;4973911;28;20184;-76
2023/01/27 02:53:27;;;;;;;18.80;12.90;;;-0.10;99.90;;;;;;4973792;28;20212;-76
2023/01/27 02:55:53;;;;;;;17.90;12.60;;;0.00;99.90;;;;;;4973643;28;20228;-76
2023/01/27 02:58:19;;;;;;;18.80;12.60;;;0.00;99.90;;;;;;4975434;28;20181;-76
2023/01/27 03:00:44;;;;;;;18.73;12.77;;;0.10;99.90;;;;;;4973877;28;20188;-76
2023/01/27 03:03:10;;;;;;;22.00;12.73;;;0.10;99.90;;;;;;4973707;28;20271;-75
2023/01/27 03:05:35;;;;;;;17.70;11.97;;;0.00;99.90;;;;;;4974124;28;20331;-75
2023/01/27 03:08:01;;;;;;;18.23;13.00;;;0.00;99.90;;;;;;4974262;28;20787;-75
2023/01/27 03:10:26;;;;;;;18.00;12.40;;;0.00;99.90;;;;;;4973548;28;20337;-75
2023/01/27 03:12:52;;;;;;;19.13;12.83;;;0.00;99.90;;;;;;4973693;28;20185;-75
2023/01/27 03:18:14;;;;;;;19.73;12.43;;;0.00;99.90;;;;;;4956247;29;20288;-75
2023/01/27 03:20:44;;;;;;;18.57;12.73;;;0.00;99.90;;;;;;4954407;29;20197;-75
2023/01/27 03:23:11;;;;;;;18.10;12.33;;;0.10;99.90;;;;;;4955740;28;20170;-75
2023/01/27 03:25:40;;;;;;;19.03;13.23;;;0.10;99.90;;;;;;4954154;29;20696;-75
2023/01/27 03:28:05;;;;;;;17.47;12.37;;;0.00;99.90;;;;;;4955524;28;20188;-75
2023/01/27 03:30:31;;;;;;;19.57;12.93;;;0.00;99.90;;;;;;4955526;29;20213;-75
2023/01/27 03:32:57;;;;;;;19.80;13.17;;;-0.10;99.90;;;;;;4954278;29;20188;-75
2023/01/27 03:35:22;;;;;;;18.77;12.73;;;-0.10;99.90;;;;;;4954868;29;20182;-75
2023/01/27 03:46:19;;;;;;;19.47;12.73;;;-0.20;99.90;;;;;;4955296;28;20292;-76
2023/01/27 03:48:50;;;;;;;16.97;12.27;;;-0.20;99.90;;;;;;4955017;28;20217;-76
2023/01/27 03:51:34;;;;;;;18.53;12.77;;;-0.30;99.90;;;;;;4954628;29;20178;-76
2023/01/27 03:54:00;;;;;;;18.13;11.87;;;-0.30;99.90;;;;;;4953796;29;20169;-76
2023/01/27 03:56:25;;;;;;;15.20;10.97;;;-0.30;99.90;;;;;;4953794;29;20202;-76
2023/01/27 03:58:51;;;;;;;16.93;11.73;;;-0.30;99.90;;;;;;4956437;28;20178;-76
2023/01/27 04:01:19;;;;;;;17.07;11.30;;;-0.30;99.90;;;;;;4957421;29;20181;-76
2023/01/27 04:09:34;;;;;;;17.03;11.83;;;-0.40;99.90;;;;;;4958917;29;20201;-76
2023/01/27 04:12:03;;;;;;;15.87;10.97;;;-0.40;99.90;;;;;;4957165;29;20177;-76
2023/01/27 04:14:34;;;;;;;16.80;11.17;;;-0.40;99.90;;;;;;4957223;29;20225;-76
2023/01/27 04:17:01;;;;;;;14.93;10.50;;;-0.40;99.90;;;;;;4957232;29;20228;-76
2023/01/27 04:19:27;;;;;;;14.27;10.43;;;-0.40;99.90;;;;;;4957191;29;20211;-76
2023/01/27 04:21:53;;;;;;;16.83;11.60;;;-0.30;99.90;;;;;;4957042;29;20201;-76
2023/01/27 04:24:22;;;;;;;18.03;11.90;;;-0.20;99.90;;;;;;4957253;29;20182;-76
2023/01/27 04:26:52;;;;;;;15.87;11.43;;;-0.20;99.90;;;;;;4958132;28;20300;-76
2023/01/27 04:29:18;;;;;;;15.23;10.63;;;-0.10;99.90;;;;;;4956888;29;20233;-76
2023/01/27 04:31:43;;;;;;;13.80;9.73;;;-0.10;99.90;;;;;;4956861;29;20178;-76
2023/01/27 04:34:11;;;;;;;14.03;10.37;;;-0.10;99.90;;;;;;4958033;29;20228;-76
2023/01/27 04:36:37;;;;;;;14.30;10.23;;;0.00;99.90;;;;;;4956780;28;20240;-76
2023/01/27 04:39:02;;;;;;;17.07;12.20;;;0.00;99.90;;;;;;4957062;28;20213;-76
2023/01/27 04:41:28;;;;;;;15.33;11.10;;;0.00;99.90;;;;;;4956696;29;20649;-76
2023/01/27 04:43:53;;;;;;;15.37;10.50;;;-0.10;99.90;;;;;;4957956;28;20178;-76
2023/01/27 04:46:19;;;;;;;14.30;10.53;;;-0.10;99.90;;;;;;4956568;29;20248;-76
2023/01/27 04:48:44;;;;;;;16.00;11.37;;;0.00;99.90;;;;;;4957343;29;20300;-76
2023/01/27 04:51:10;;;;;;;16.17;10.80;;;-0.10;99.90;;;;;;4956638;28;20183;-76
2023/01/27 04:53:35;;;;;;;14.47;10.63;;;-0.10;99.90;;;;;;4975684;28;20663;-76
2023/01/27 04:56:23;;;;;;;17.50;10.60;;;-0.20;99.90;;;;;;4977104;28;20207;-76
2023/01/27 04:58:49;;;;;;;15.80;11.20;;;-0.30;99.90;;;;;;4975711;28;20169;-76
2023/01/27 05:01:15;;;;;;;14.30;10.07;;;-0.30;99.90;;;;;;4977168;28;20184;-76
2023/01/27 05:03:40;;;;;;;15.97;10.70;;;-0.30;99.90;;;;;;4976774;28;20201;-76
2023/01/27 05:06:07;;;;;;;14.80;10.60;;;-0.40;99.90;;;;;;4975540;28;20207;-76
2023/01/27 05:08:32;;;;;;;14.80;10.43;;;-0.50;99.90;;;;;;4975533;28;20207;-77
2023/01/27 05:10:58;;;;;;;16.23;11.00;;;-0.40;99.90;;;;;;4974881;28;20652;-77
2023/01/27 05:13:23;;;;;;;17.70;10.80;;;-0.40;99.90;;;;;;4975691;28;20265;-77
2023/01/27 05:15:49;;;;;;;18.53;12.00;;;-0.40;99.90;;;;;;4975357;28;20268;-77
2023/01/27 05:18:44;;;;;;;20.87;13.60;;;-0.40;99.90;;;;;;4975393;28;20185;-77
2023/01/27 05:21:13;;;;;;;23.40;13.50;;;-0.40;99.90;;;;;;4976165;28;20189;-77
2023/01/27 05:27:07;;;;;;;13.57;10.17;;;-0.30;99.90;;;;;;4957103;29;20203;-77
2023/01/27 05:29:32;;;;;;;13.60;10.30;;;-0.20;99.90;;;;;;4957324;29;20217;-77
2023/01/27 05:31:58;;;;;;;14.30;9.80;;;-0.10;99.90;;;;;;4955837;29;20182;-77
2023/01/27 05:34:24;;;;;;;14.03;9.93;;;-0.10;99.90;;;;;;4957083;29;20174;-78
2023/01/27 05:36:50;;;;;;;15.70;9.10;;;-0.10;99.90;;;;;;4955673;29;20205;-77
2023/01/27 05:39:16;;;;;;;12.50;9.40;;;-0.10;99.90;;;;;;4957223;28;20173;-77
2023/01/27 05:41:41;;;;;;;14.10;9.57;;;0.00;99.90;;;;;;4955596;29;20188;-77
2023/01/27 05:44:10;;;;;;;12.80;9.87;;;-0.20;99.90;;;;;;4955897;29;20185;-77
2023/01/27 05:46:38;;;;;;;11.30;8.60;;;-0.20;99.90;;;;;;4956734;28;20624;-76
2023/01/27 05:49:04;;;;;;;10.73;8.50;;;-0.10;99.90;;;;;;4956884;28;20260;-77
2023/01/27 05:51:32;;;;;;;12.93;9.20;;;0.00;99.90;;;;;;4967672;28;20272;-78
2023/01/27 05:53:58;;;;;;;11.53;8.47;;;-0.10;99.90;;;;;;4959495;28;20189;-77
2023/01/27 05:56:25;;;;;;;14.70;9.87;;;0.00;99.90;;;;;;4971202;28;20225;-77
2023/01/27 05:58:53;;;;;;;12.27;9.10;;;-0.10;99.90;;;;;;4955374;29;20213;-77
2023/01/27 06:01:21;;;;;;;13.90;9.87;;;-0.10;99.90;;;;;;4956750;28;20185;-77
2023/01/27 06:03:47;;;;;;;12.30;9.37;;;-0.10;99.90;;;;;;4955745;29;20240;-77
2023/01/27 06:06:15;;;;;;;13.17;9.23;;;0.00;99.90;;;;;;4955964;28;20232;-77
2023/01/27 06:08:41;;;;;;;12.40;10.27;;;0.00;99.90;;;;;;4955099;28;20244;-77
2023/01/27 06:11:07;;;;;;;10.43;8.13;;;0.10;99.90;;;;;;4956252;28;20197;-77
2023/01/27 06:13:34;;;;;;;10.80;8.80;;;0.10;99.90;;;;;;4956474;28;20228;-77
2023/01/27 06:16:01;;;;;;;12.83;8.80;;;0.00;99.90;;;;;;4955230;29;20202;-77
2023/01/27 06:18:27;;;;;;;11.77;8.90;;;-0.10;99.90;;;;;;4954890;28;20182;-76
2023/01/27 06:20:57;;;;;;;12.17;8.83;;;-0.10;99.90;;;;;;4954692;28;20200;-76
2023/01/27 06:23:23;;;;;;;9.53;7.77;;;-0.10;99.90;;;;;;4955184;28;20317;-77
2023/01/27 06:25:48;;;;;;;9.50;7.70;;;0.10;99.90;;;;;;4955049;29;20264;-77
2023/01/27 06:28:15;;;;;;;9.40;8.13;;;0.20;99.90;;;;;;4954708;29;20275;-77
2023/01/27 06:34:03;;;;;;;8.00;6.47;;;0.30;99.90;;;;;;4955945;29;20168;-76
2023/01/27 06:36:28;;;;;;;8.43;6.93;;;0.00;99.90;;;;;;4954597;29;20285;-77
2023/01/27 06:38:54;;;;;;;8.37;7.27;;;0.10;99.90;;;;;;4967040;28;20223;-77
2023/01/27 06:41:19;;;;;;;16.23;12.10;;;0.00;99.90;;;;;;4973780;28;20216;-77
2023/01/27 06:43:45;;;;;;;8.30;6.70;;;0.00;99.90;;;;;;4975023;28;20207;-76
2023/01/27 06:46:11;;;;;;;8.63;7.27;;;-0.10;99.90;;;;;;4975167;28;20208;-77
2023/01/27 06:48:39;;;;;;;6.37;5.60;;;0.00;99.90;;;;;;4974763;28;20199;-77
2023/01/27 06:51:06;;;;;;;7.53;6.67;;;0.10;99.90;;;;;;4975158;28;20291;-77
2023/01/27 06:53:33;;;;;;;6.67;5.90;;;0.20;99.90;;;;;;4973613;28;20215;-77
2023/01/27 06:56:00;;;;;;;6.03;5.43;;;0.20;99.90;;;;;;4973610;28;20208;-76
2023/01/27 06:58:25;;;;;;;6.47;5.87;;;0.20;99.90;;;;;;4973864;28;20184;-76
2023/01/27 07:00:51;;;;;;;6.57;5.63;;;0.10;99.90;;;;;;4973543;28;20188;-76
2023/01/27 07:03:17;;;;;;;7.17;6.00;;;0.10;99.90;;;;;;4973914;28;20191;-77
2023/01/27 07:05:42;;;;;;;6.77;6.00;;;0.10;99.90;;;;;;4973815;28;20243;-77
2023/01/27 07:08:09;;;;;;;6.67;5.63;;;0.10;99.90;;;;;;4973502;28;20288;-76
2023/01/27 07:10:34;;;;;;;6.57;5.77;;;0.20;99.90;;;;;;4973472;28;20209;-76
2023/01/27 07:13:08;;;;;;;7.97;6.70;;;0.20;99.90;;;;;;4974352;28;20185;-76
2023/01/27 07:15:34;;;;;;;10.80;8.77;;;0.10;99.90;;;;;;4973375;28;20184;-76
2023/01/27 07:18:01;;;;;;;8.43;7.10;;;0.10;99.90;;;;;;4974485;28;20239;-76
2023/01/27 07:20:27;;;;;;;15.77;11.43;;;0.10;99.90;;;;;;4973379;28;20205;-76
2023/01/27 07:22:59;;;;;;;20.87;14.70;;;0.30;99.90;;;;;;4973675;28;20185;-77
2023/01/27 07:25:26;;;;;;;25.53;18.77;;;0.40;99.90;;;;;;4973448;28;20185;-77
2023/01/27 07:33:25;;;;;;;8.77;7.40;;;0.40;99.90;;;;;;5054308;23;20252;-78
2023/01/27 07:35:51;;;;;;;14.03;9.93;;;0.50;99.90;;;;;;4941985;29;20189;-78
2023/01/27 07:38:17;;;;;;;7.83;6.90;;;0.50;99.90;;;;;;4942657;29;20185;-77
2023/01/27 07:40:42;;;;;;;7.63;6.53;;;0.50;99.90;;;;;;4942009;29;20590;-78
2023/01/27 07:43:10;;;;;;;25.93;20.20;;;0.50;99.90;;;;;;4941857;29;20197;-78
2023/01/27 07:45:35;;;;;;;28.20;21.10;;;0.60;99.90;;;;;;4942017;29;20217;-78
2023/01/27 07:48:07;;;;;;;20.70;15.30;;;0.70;99.90;;;;;;4941779;29;20685;-78
2023/01/27 07:50:33;;;;;;;11.40;8.43;;;0.80;99.90;;;;;;4941680;29;20221;-78
2023/01/27 07:53:03;;;;;;;10.60;8.30;;;0.80;99.90;;;;;;4942110;29;20233;-77
2023/01/27 07:55:30;;;;;;;9.63;7.80;;;0.80;99.90;;;;;;4941601;29;20178;-80
2023/01/27 07:57:57;;;;;;;7.90;6.73;;;0.80;99.90;;;;;;4941877;29;20185;-78
2023/01/27 08:00:23;;;;;;;7.57;6.37;;;0.90;99.90;;;;;;4941213;29;20209;-77
2023/01/27 08:02:53;;;;;;;7.83;6.07;;;0.90;99.90;;;;;;4941738;29;20717;-77
2023/01/27 08:05:19;;;;;;;6.53;5.70;;;1.00;99.90;;;;;;4941430;29;20200;-78
2023/01/27 08:11:09;;;;;;;6.97;5.77;;;1.20;99.90;;;;;;4958468;28;20192;-77
2023/01/27 08:13:35;;;;;;;7.47;6.67;;;1.30;99.90;;;;;;4941251;29;20178;-77
2023/01/27 08:16:07;;;;;;;6.93;6.07;;;1.30;99.90;;;;;;4958610;29;20178;-77
2023/01/27 08:18:33;;;;;;;6.07;5.47;;;1.40;99.90;;;;;;4941800;29;20205;-77
2023/01/27 08:21:00;;;;;;;11.23;8.93;;;1.40;99.90;;;;;;4941668;29;20236;-77
2023/01/27 08:23:26;;;;;;;12.47;10.23;;;1.50;99.90;;;;;;4958213;28;20280;-77
2023/01/27 08:25:53;;;;;;;8.47;6.90;;;1.60;99.90;;;;;;4941006;29;20218;-77
2023/01/27 08:28:20;;;;;;;7.37;5.97;;;1.50;99.90;;;;;;4958376;29;20170;-77
2023/01/27 08:30:46;;;;;;;5.20;4.70;;;1.50;99.90;;;;;;4957989;29;20202;-77
2023/01/27 08:33:12;;;;;;;5.10;4.60;;;1.50;99.90;;;;;;4941291;29;20296;-77
2023/01/27 08:35:41;;;;;;;5.53;4.93;;;1.30;99.90;;;;;;4940743;29;20205;-77
2023/01/27 08:38:07;;;;;;;5.20;4.70;;;1.30;99.90;;;;;;4958086;29;20174;-77
2023/01/27 08:40:33;;;;;;;5.87;4.77;;;1.30;99.90;;;;;;4957969;29;20178;-77
2023/01/27 08:43:00;;;;;;;8.40;6.73;;;1.20;99.90;;;;;;4957904;28;20268;-77
2023/01/27 08:45:26;;;;;;;7.03;5.50;;;1.30;99.90;;;;;;4939297;29;20249;-77
2023/01/27 08:47:52;;;;;;;8.63;6.87;;;1.30;99.90;;;;;;4940731;29;20189;-77
2023/01/27 08:50:17;;;;;;;9.10;6.87;;;1.20;99.90;;;;;;4940526;29;20211;-77
2023/01/27 08:52:43;;;;;;;6.20;5.60;;;1.20;99.90;;;;;;4940844;29;20201;-77
2023/01/27 08:55:08;;;;;;;4.40;4.00;;;1.30;99.90;;;;;;4941058;29;20213;-77
2023/01/27 08:57:34;;;;;;;3.50;3.20;;;1.40;99.90;;;;;;4940718;29;20221;-77
2023/01/27 09:00:00;;;;;;;3.40;3.10;;;1.60;99.90;;;;;;4940892;29;20188;-77
2023/01/27 09:02:25;;;;;;;3.10;2.80;;;1.70;99.90;;;;;;4940320;29;20297;-77
2023/01/27 09:04:51;;;;;;;3.63;2.90;;;1.90;99.90;;;;;;4940381;29;20272;-77
2023/01/27 09:07:17;;;;;;;3.43;2.60;;;2.00;99.90;;;;;;4957079;29;20185;-77
2023/01/27 09:09:47;;;;;;;3.70;2.70;;;2.10;99.90;;;;;;4940113;29;20209;-77
2023/01/27 09:12:13;;;;;;;3.87;3.00;;;2.30;99.90;;;;;;4940690;29;20233;-77
2023/01/27 09:14:39;;;;;;;2.33;2.10;;;2.30;99.90;;;;;;4940090;29;20185;-77
2023/01/27 09:17:04;;;;;;;2.57;2.37;;;2.50;99.90;;;;;;4940090;29;20312;-77
2023/01/27 09:19:30;;;;;;;2.77;2.57;;;2.60;99.90;;;;;;4957400;29;20178;-77
2023/01/27 09:21:56;;;;;;;2.77;2.57;;;2.60;99.90;;;;;;4939930;29;20209;-77
2023/01/27 09:24:22;;;;;;;2.73;2.33;;;2.70;99.90;;;;;;4957145;29;20188;-77
2023/01/27 09:26:47;;;;;;;2.67;2.23;;;2.70;99.90;;;;;;4940070;29;20300;-77
2023/01/27 09:29:13;;;;;;;2.37;2.17;;;2.80;99.90;;;;;;4940511;29;20201;-77
2023/01/27 09:31:38;;;;;;;3.00;2.80;;;2.90;99.90;;;;;;4939718;29;20217;-77
2023/01/27 09:34:04;;;;;;;2.80;2.60;;;3.00;99.90;;;;;;4939744;29;20212;-77
2023/01/27 09:36:32;;;;;;;2.90;2.70;;;3.10;99.90;;;;;;4940778;29;20185;-77
2023/01/27 09:39:05;;;;;;;2.90;2.60;;;3.20;99.90;;;;;;4939638;29;20186;-77
2023/01/27 09:41:39;;;;;;;2.00;1.80;;;3.20;99.90;;;;;;4939611;29;20205;-77
2023/01/27 09:44:14;;;;;;;3.13;2.83;;;3.30;99.90;;;;;;4939951;29;20197;-77
2023/01/27 09:47:03;;;;;;;3.90;2.30;;;3.20;99.90;;;;;;4939924;29;20181;-77
2023/01/27 09:49:40;;;;;;;8.87;6.40;;;3.10;99.90;;;;;;4939555;29;20284;-77
2023/01/27 09:55:47;;;;;;;45.83;26.97;;;3.00;99.90;;;;;;4955609;28;20189;-77
2023/01/27 09:58:37;;;;;;;4.90;4.00;;;2.80;99.90;;;;;;4939600;29;20173;-77
2023/01/27 10:01:18;;;;;;;8.30;7.50;;;2.70;99.90;;;;;;4939567;29;20192;-77
2023/01/27 10:04:13;;;;;;;3.33;3.03;;;2.60;99.90;;;;;;4939792;29;20284;-77
2023/01/27 10:07:15;;;;;;;2.03;1.83;;;2.60;99.90;;;;;;4939463;29;20656;-77
2023/01/27 10:09:53;;;;;;;1.87;1.77;;;2.50;99.90;;;;;;4909282;29;20261;-77
2023/01/27 10:13:04;;;;;;;2.07;1.90;;;2.50;99.90;;;;;;4920117;29;20208;-77
2023/01/27 10:16:14;;;;;;;4.73;3.37;;;2.60;99.90;;;;;;4942830;29;20248;-77
2023/01/27 10:18:50;;;;;;;4.40;2.63;;;2.60;99.90;;;;;;4956535;29;20199;-83
2023/01/27 10:21:26;;;;;;;2.50;2.30;;;2.70;99.90;;;;;;4939738;29;20177;-76
2023/01/27 10:24:19;;;;;;;2.53;2.33;;;2.70;99.90;;;;;;4939306;29;20220;-76
2023/01/27 10:26:55;;;;;;;2.30;2.20;;;2.70;99.90;;;;;;4956117;29;20177;-77
2023/01/27 10:29:25;;;;;;;2.10;2.00;;;2.80;99.90;;;;;;4940002;29;20208;-76
2023/01/27 10:35:44;;;;;;;1.70;1.60;;;3.10;99.90;;;;;;4955978;28;20285;-76
2023/01/27 10:38:51;;;;;;;1.87;1.70;;;3.20;99.90;;;;;;4938661;29;20180;-77
2023/01/27 10:41:33;;;;;;;1.87;1.77;;;3.40;99.90;;;;;;4938645;29;20180;-77
2023/01/27 10:44:26;;;;;;;2.23;2.03;;;3.60;99.90;;;;;;4939686;29;20173;-77
2023/01/27 10:47:32;;;;;;;2.43;2.17;;;3.80;99.90;;;;;;4955999;29;20201;-77
2023/01/27 10:50:20;;;;;;;3.27;2.97;;;4.00;99.90;;;;;;4938531;29;20319;-77
2023/01/27 10:53:16;;;;;;;2.20;2.10;;;4.00;99.90;;;;;;4955534;29;20310;-77
2023/01/27 10:55:54;;;;;;;2.03;1.93;;;4.00;99.90;;;;;;4955573;29;20170;-77
2023/01/27 10:58:54;;;;;;;1.90;1.80;;;4.00;99.90;;;;;;4955626;29;20158;-77
2023/01/27 11:01:30;;;;;;;1.90;1.80;;;3.90;99.90;;;;;;4938277;29;20169;-76
2023/01/27 11:07:38;;;;;;;2.20;2.10;;;3.80;99.90;;;;;;4955053;29;20174;-77
2023/01/27 11:10:17;;;;;;;2.40;2.20;;;3.90;99.90;;;;;;4938353;29;20240;-77
2023/01/27 11:12:48;;;;;;;2.10;1.90;;;3.90;99.90;;;;;;4938125;29;20212;-76
2023/01/27 11:15:16;;;;;;;2.30;2.10;;;3.60;99.90;;;;;;4938280;29;20654;-76
2023/01/27 11:17:56;;;;;;;7.60;6.73;;;3.60;99.90;;;;;;4955632;29;20181;-76
2023/01/27 11:20:34;;;;;;;11.17;9.63;;;3.40;99.90;;;;;;4939393;29;20166;-76
2023/01/27 11:23:08;;;;;;;3.10;2.80;;;3.30;99.90;;;;;;4938107;29;20204;-77
2023/01/27 11:26:11;;;;;;;2.20;2.10;;;3.40;99.90;;;;;;4938105;29;20177;-77
2023/01/27 11:28:55;;;;;;;2.60;2.40;;;3.40;99.90;;;;;;4955455;29;20166;-77
2023/01/27 11:31:39;;;;;;;2.50;2.30;;;3.40;99.90;;;;;;4955455;29;20178;-76
2023/01/27 11:34:55;;;;;;;3.30;2.43;;;3.40;99.90;;;;;;4955351;29;20294;-77
2023/01/27 11:37:34;;;;;;;4.23;3.30;;;3.40;99.90;;;;;;4956287;29;20220;-77
2023/01/27 11:40:20;;;;;;;2.73;2.50;;;3.40;99.90;;;;;;4955531;29;20166;-77
2023/01/27 11:42:45;;;;;;;7.47;6.30;;;3.40;99.90;;;;;;4940103;29;20296;-78
2023/01/27 11:45:14;;;;;;;4.10;3.70;;;3.60;99.90;;;;;;4938199;29;20277;-76
2023/01/27 11:47:41;;;;;;;3.23;2.93;;;3.60;99.90;;;;;;4938500;29;20178;-76
2023/01/27 11:50:14;;;;;;;2.23;2.10;;;3.70;99.90;;;;;;4938487;29;20680;-77
2023/01/27 11:52:39;;;;;;;4.00;3.60;;;3.80;99.90;;;;;;4938264;29;20206;-77
2023/01/27 11:55:39;;;;;;;2.90;2.70;;;3.80;99.90;;;;;;4938182;29;20237;-77
2023/01/27 11:58:26;;;;;;;3.70;3.40;;;3.90;99.90;;;;;;4955281;29;20170;-76
2023/01/27 12:01:06;;;;;;;3.63;2.30;;;4.10;99.90;;;;;;4955270;29;20182;-76
2023/01/27 12:03:53;;;;;;;2.60;2.40;;;4.10;99.90;;;;;;4938204;29;20252;-78
2023/01/27 12:06:53;;;;;;;2.00;1.90;;;4.20;99.90;;;;;;4938351;29;20178;-77
2023/01/27 12:09:34;;;;;;;1.90;1.80;;;4.30;99.90;;;;;;4937549;29;20268;-77
2023/01/27 12:12:12;;;;;;;1.70;1.60;;;4.40;99.90;;;;;;4923737;29;20197;-77
2023/01/27 12:14:38;;;;;;;1.80;1.70;;;4.60;99.90;;;;;;4937962;29;20186;-77
2023/01/27 12:17:06;;;;;;;1.20;1.20;;;4.60;99.90;;;;;;4938657;29;20181;-77
2023/01/27 12:19:39;;;;;;;1.23;1.17;;;4.70;99.90;;;;;;4939069;29;20196;-77
2023/01/27 12:22:27;;;;;;;1.43;1.33;;;4.60;99.90;;;;;;4941651;29;20216;-76
2023/01/27 12:24:57;;;;;;;1.33;1.23;;;4.50;99.90;;;;;;4941655;29;20425;-76
2023/01/27 12:28:04;;;;;;;1.53;1.43;;;4.20;99.90;;;;;;4941047;29;20189;-76
2023/01/27 12:30:37;;;;;;;1.50;1.40;;;4.10;99.90;;;;;;4940932;29;20204;-76
2023/01/27 12:33:13;;;;;;;0.90;0.90;;;3.90;99.90;;;;;;4941189;29;20209;-76
2023/01/27 12:35:39;;;;;;;2.07;1.80;;;3.80;99.90;;;;;;4940632;29;20204;-76
2023/01/27 12:38:25;;;;;;;0.80;0.80;;;3.70;99.90;;;;;;4957858;29;20185;-76
2023/01/27 12:40:59;;;;;;;1.90;1.67;;;3.70;99.90;;;;;;4940570;29;20217;-76
2023/01/27 12:43:24;;;;;;;1.33;1.23;;;3.60;99.90;;;;;;4957854;29;20208;-76
2023/01/27 12:46:32;;;;;;;3.40;2.87;;;3.70;99.90;;;;;;4940709;29;20186;-77
2023/01/27 12:49:09;;;;;;;5.33;4.03;;;3.80;99.90;;;;;;4957924;29;20201;-76
2023/01/27 12:55:37;;;;;;;1.47;1.37;;;3.50;99.90;;;;;;4948441;29;20180;-76
2023/01/27 12:58:03;;;;;;;1.60;1.43;;;3.50;99.90;;;;;;4957793;29;20268;-76
2023/01/27 13:00:48;;;;;;;1.20;1.20;;;3.40;99.90;;;;;;4941285;29;20224;-76
2023/01/27 13:03:21;;;;;;;4.87;2.90;;;3.40;99.90;;;;;;4941253;29;20296;-76
2023/01/27 13:05:51;;;;;;;0.90;0.90;;;3.50;99.90;;;;;;4957396;29;20208;-76
2023/01/27 13:08:19;;;;;;;1.77;1.37;;;3.70;99.90;;;;;;4924470;29;20280;-76
2023/01/27 13:10:59;;;;;;;11.20;7.00;;;3.70;99.90;;;;;;4940167;29;20267;-76
2023/01/27 13:13:49;;;;;;;8.07;5.60;;;3.80;99.90;;;;;;4940041;29;20209;-76
2023/01/27 13:16:21;;;;;;;11.67;5.90;;;3.80;99.90;;;;;;4940095;29;20193;-76
2023/01/27 13:18:59;;;;;;;5.67;3.40;;;3.70;99.90;;;;;;4957590;29;20170;-76
2023/01/27 13:21:36;;;;;;;1.20;1.10;;;3.70;99.90;;;;;;4940023;29;20687;-76
2023/01/27 13:24:29;;;;;;;3.37;1.60;;;3.70;99.90;;;;;;4939924;29;20209;-76
2023/01/27 13:26:55;;;;;;;2.90;2.50;;;3.80;99.90;;;;;;4957150;29;20188;-76
2023/01/27 13:29:27;;;;;;;1.00;0.90;;;4.00;99.90;;;;;;4940077;29;20244;-76
2023/01/27 13:32:10;;;;;;;1.20;1.10;;;4.10;99.90;;;;;;4939251;29;20213;-76
2023/01/27 13:35:25;;;;;;;0.80;0.80;;;4.10;99.90;;;;;;4924828;29;20269;-79
2023/01/27 13:38:13;;;;;;;2.73;1.90;;;4.00;99.90;;;;;;4873821;29;20203;-76
2023/01/27 13:40:44;;;;;;;1.50;1.40;;;4.10;99.90;;;;;;4879400;29;20236;-76
2023/01/27 13:43:36;;;;;;;2.53;2.33;;;4.00;99.90;;;;;;4913124;29;20692;-75
2023/01/27 13:46:15;;;;;;;2.47;1.30;;;4.10;99.90;;;;;;4939919;29;20182;-77
2023/01/27 13:48:54;;;;;;;1.10;1.03;;;4.10;99.90;;;;;;4940166;29;20284;-76
2023/01/27 13:51:22;;;;;;;0.90;0.90;;;4.10;99.90;;;;;;4938576;29;20174;-77
2023/01/27 13:53:55;;;;;;;0.70;0.70;;;4.30;99.90;;;;;;4938924;29;20173;-76
2023/01/27 13:56:39;;;;;;;0.70;0.70;;;4.40;99.90;;;;;;4938992;29;20206;-76
2023/01/27 13:59:26;;;;;;;1.07;0.67;;;4.30;99.90;;;;;;4956008;29;20237;-76
2023/01/27 14:02:01;;;;;;;4.10;1.53;;;4.40;99.90;;;;;;4955913;29;20201;-76
2023/01/27 14:04:48;;;;;;;0.83;0.83;;;4.30;99.90;;;;;;4955921;29;20248;-76
2023/01/27 14:07:36;;;;;;;0.70;0.70;;;4.30;99.90;;;;;;4939308;29;20173;-76